createdAt,value
2018-04-13T00:00:13.308Z,12.40
2018-04-13T00:02:40.732Z,12.40
2018-04-13T00:05:08.937Z,12.30
2018-04-13T00:07:36.393Z,12.30
2018-04-13T00:10:03.852Z,12.30
2018-04-13T00:12:31.293Z,12.20
2018-04-13T00:14:58.737Z,12.20
2018-04-13T00:17:26.179Z,12.10
2018-04-13T00:19:53.617Z,12.00
2018-04-13T00:22:21.049Z,12.00
2018-04-13T00:24:48.939Z,12.00
2018-04-13T00:27:16.411Z,12.00
2018-04-13T00:29:43.835Z,12.00
2018-04-13T00:32:11.276Z,11.90
2018-04-13T00:34:38.715Z,11.90
2018-04-13T00:37:06.163Z,11.90
2018-04-13T00:39:33.591Z,11.80
2018-04-13T00:42:01.801Z,11.80
2018-04-13T00:44:29.233Z,11.70
2018-04-13T00:46:57.447Z,11.70
2018-04-13T00:49:24.885Z,11.70
2018-04-13T00:51:52.328Z,11.70
2018-04-13T00:54:19.763Z,11.60
2018-04-13T00:56:47.969Z,11.50
2018-04-13T00:59:15.413Z,11.50
2018-04-13T01:01:42.849Z,11.50
2018-04-13T01:04:11.051Z,11.40
2018-04-13T01:06:38.496Z,11.40
2018-04-13T01:09:05.968Z,11.40
2018-04-13T01:11:33.407Z,11.40
2018-04-13T01:14:00.849Z,11.40
2018-04-13T01:16:29.057Z,11.30
2018-04-13T01:18:56.492Z,11.30
2018-04-13T01:21:23.932Z,11.30
2018-04-13T01:23:52.133Z,11.30
2018-04-13T01:26:19.577Z,11.30
2018-04-13T01:28:47.013Z,11.30
2018-04-13T01:31:15.216Z,11.20
2018-04-13T01:33:42.661Z,11.20
2018-04-13T01:36:10.096Z,11.20
2018-04-13T01:38:38.301Z,11.10
2018-04-13T01:41:05.808Z,11.10
2018-04-13T01:43:33.245Z,11.10
2018-04-13T01:46:00.700Z,11.10
2018-04-13T01:48:28.154Z,11.10
2018-04-13T01:50:55.600Z,11.00
2018-04-13T01:53:23.036Z,11.00
2018-04-13T01:55:50.481Z,11.00
2018-04-13T01:58:17.920Z,10.90
2018-04-13T02:00:46.126Z,10.80
2018-04-13T02:03:13.571Z,10.80
2018-04-13T02:05:41.034Z,10.80
2018-04-13T02:08:08.472Z,10.70
2018-04-13T02:10:35.909Z,10.70
2018-04-13T02:13:04.116Z,10.60
2018-04-13T02:15:31.552Z,10.60
2018-04-13T02:17:59.000Z,10.60
2018-04-13T02:20:27.204Z,10.50
2018-04-13T02:22:54.681Z,10.50
2018-04-13T02:25:22.092Z,10.50
2018-04-13T02:27:49.539Z,10.40
2018-04-13T02:30:17.744Z,10.30
2018-04-13T02:32:45.189Z,10.20
2018-04-13T02:35:12.621Z,10.20
2018-04-13T02:37:40.834Z,10.00
2018-04-13T02:40:08.269Z,10.00
2018-04-13T02:42:35.725Z,10.00
2018-04-13T02:45:03.159Z,9.90
2018-04-13T02:47:31.364Z,9.90
2018-04-13T02:49:58.791Z,9.90
2018-04-13T02:52:27.010Z,9.90
2018-04-13T02:54:54.442Z,9.90
2018-04-13T02:57:21.881Z,10.00
2018-04-13T02:59:50.320Z,9.80
2018-04-13T03:02:17.762Z,9.80
2018-04-13T03:04:45.193Z,9.80
2018-04-13T03:07:12.631Z,9.70
2018-04-13T03:09:40.074Z,9.70
2018-04-13T03:12:08.277Z,9.60
2018-04-13T03:14:35.716Z,9.50
2018-04-13T03:17:03.161Z,9.60
2018-04-13T03:19:31.357Z,9.50
2018-04-13T03:21:58.800Z,9.50
2018-04-13T03:24:26.246Z,9.50
2018-04-13T03:26:54.445Z,9.80
2018-04-13T03:29:21.878Z,9.70
2018-04-13T03:31:51.284Z,9.80
2018-04-13T03:34:19.484Z,9.80
2018-04-13T03:36:46.930Z,9.70
2018-04-13T03:39:14.383Z,9.80
2018-04-13T03:41:41.841Z,9.80
2018-04-13T03:44:09.278Z,9.80
2018-04-13T03:46:37.481Z,9.70
2018-04-13T03:49:05.861Z,9.70
2018-04-13T03:51:33.293Z,9.70
2018-04-13T03:54:00.731Z,9.60
2018-04-13T03:56:28.930Z,9.60
2018-04-13T03:58:56.368Z,9.60
2018-04-13T04:01:23.800Z,9.60
2018-04-13T04:03:51.240Z,9.60
2018-04-13T04:06:18.669Z,9.70
2018-04-13T04:08:46.116Z,9.70
2018-04-13T04:11:13.563Z,9.70
2018-04-13T04:13:41.004Z,9.70
2018-04-13T04:16:08.436Z,9.70
2018-04-13T04:18:36.649Z,9.70
2018-04-13T04:21:16.018Z,9.70
2018-04-13T04:23:55.422Z,9.70
2018-04-13T04:26:34.813Z,9.60
2018-04-13T04:29:03.023Z,9.70
2018-04-13T04:31:30.467Z,9.70
2018-04-13T04:33:58.661Z,9.70
2018-04-13T04:36:26.101Z,9.70
2018-04-13T04:38:53.549Z,9.70
2018-04-13T04:41:21.744Z,9.70
2018-04-13T04:43:49.191Z,9.70
2018-04-13T04:46:16.612Z,9.70
2018-04-13T04:48:44.844Z,9.70
2018-04-13T04:51:12.280Z,9.70
2018-04-13T04:53:39.721Z,9.70
2018-04-13T04:56:07.153Z,9.70
2018-04-13T04:58:35.362Z,9.80
2018-04-13T05:01:02.793Z,9.80
2018-04-13T05:03:30.991Z,9.90
2018-04-13T05:05:58.418Z,9.90
2018-04-13T05:08:26.628Z,10.00
2018-04-13T05:10:54.060Z,9.90
2018-04-13T05:13:21.496Z,10.00
2018-04-13T05:15:49.697Z,10.00
2018-04-13T05:18:17.158Z,10.00
2018-04-13T05:20:44.601Z,10.00
2018-04-13T05:23:12.796Z,9.90
2018-04-13T05:25:40.227Z,9.90
2018-04-13T05:28:07.681Z,9.90
2018-04-13T05:30:35.877Z,9.90
2018-04-13T05:33:03.332Z,9.90
2018-04-13T05:35:30.773Z,10.00
2018-04-13T05:37:58.225Z,10.10
2018-04-13T05:40:25.657Z,10.20
2018-04-13T05:42:53.092Z,10.30
2018-04-13T05:45:20.531Z,10.40
2018-04-13T05:47:47.983Z,10.50
2018-04-13T05:50:15.413Z,10.50
2018-04-13T05:52:42.858Z,10.60
2018-04-13T05:55:11.051Z,10.60
2018-04-13T05:57:38.494Z,10.60
2018-04-13T06:00:05.932Z,10.70
2018-04-13T06:02:34.145Z,11.00
2018-04-13T06:05:01.589Z,11.00
2018-04-13T06:07:29.037Z,11.20
2018-04-13T06:09:56.485Z,11.40
2018-04-13T06:12:23.927Z,11.60
2018-04-13T06:14:52.163Z,12.00
2018-04-13T06:17:19.577Z,12.00
2018-04-13T06:19:47.020Z,12.20
2018-04-13T06:22:15.216Z,12.50
2018-04-13T06:24:42.714Z,12.50
2018-04-13T06:27:10.144Z,12.60
2018-04-13T06:29:37.615Z,12.80
2018-04-13T06:32:05.020Z,12.90
2018-04-13T06:34:32.455Z,13.00
2018-04-13T06:37:00.662Z,13.30
2018-04-13T06:39:28.125Z,13.20
2018-04-13T06:41:55.559Z,13.40
2018-04-13T06:44:23.006Z,13.50
2018-04-13T06:46:51.210Z,13.50
2018-04-13T06:49:18.665Z,13.50
2018-04-13T06:51:46.103Z,13.50
2018-04-13T06:54:13.556Z,13.60
2018-04-13T06:56:40.999Z,13.60
2018-04-13T06:59:09.532Z,13.80
2018-04-13T07:01:36.984Z,13.80
2018-04-13T07:04:04.428Z,13.90
2018-04-13T07:06:31.872Z,14.00
2018-04-13T07:08:59.323Z,14.20
2018-04-13T07:11:26.748Z,14.40
2018-04-13T07:13:54.189Z,14.60
2018-04-13T07:16:21.620Z,14.90
2018-04-13T07:18:49.071Z,15.10
2018-04-13T07:21:16.514Z,15.40
2018-04-13T07:23:43.952Z,15.60
2018-04-13T07:26:11.389Z,15.80
2018-04-13T07:28:39.585Z,15.80
2018-04-13T07:31:07.016Z,15.80
2018-04-13T07:33:35.213Z,15.60
2018-04-13T07:36:02.652Z,15.60
2018-04-13T07:38:30.857Z,15.50
2018-04-13T07:40:58.312Z,15.50
2018-04-13T07:43:25.748Z,15.50
2018-04-13T07:45:53.214Z,15.50
2018-04-13T07:48:20.665Z,15.40
2018-04-13T07:50:48.864Z,15.40
2018-04-13T07:53:16.293Z,15.40
2018-04-13T07:55:43.744Z,15.50
2018-04-13T07:58:12.334Z,15.60
2018-04-13T08:00:39.374Z,15.60
2018-04-13T08:03:06.829Z,15.70
2018-04-13T08:05:34.261Z,15.80
2018-04-13T08:08:02.460Z,16.20
2018-04-13T08:10:29.921Z,16.10
2018-04-13T08:12:57.353Z,16.40
2018-04-13T08:15:25.565Z,16.80
2018-04-13T08:17:53.012Z,16.80
2018-04-13T08:20:20.470Z,17.00
2018-04-13T08:22:47.900Z,17.10
2018-04-13T08:25:16.117Z,17.40
2018-04-13T08:27:43.552Z,17.40
2018-04-13T08:30:11.040Z,17.50
2018-04-13T08:32:38.429Z,17.50
2018-04-13T08:35:06.649Z,17.50
2018-04-13T08:37:34.092Z,17.50
2018-04-13T08:40:01.525Z,17.60
2018-04-13T08:42:29.729Z,17.50
2018-04-13T08:44:57.176Z,17.40
2018-04-13T08:47:24.621Z,17.50
2018-04-13T08:49:52.062Z,17.40
2018-04-13T08:52:20.256Z,17.40
2018-04-13T08:54:47.692Z,17.40
2018-04-13T08:57:15.895Z,17.30
2018-04-13T08:59:43.331Z,17.30
2018-04-13T09:02:10.757Z,17.30
2018-04-13T09:04:38.192Z,17.40
2018-04-13T09:07:05.633Z,17.30
2018-04-13T09:09:33.067Z,17.40
2018-04-13T09:12:00.519Z,17.50
2018-04-13T09:14:39.712Z,17.60
2018-04-13T09:17:07.148Z,17.80
2018-04-13T09:19:34.588Z,17.90
2018-04-13T09:22:02.024Z,18.00
2018-04-13T09:24:29.474Z,18.10
2018-04-13T09:26:57.157Z,18.30
2018-04-13T09:29:25.128Z,18.60
2018-04-13T09:31:52.549Z,18.60
2018-04-13T09:34:19.980Z,18.80
2018-04-13T09:36:48.189Z,19.30
2018-04-13T09:39:15.647Z,19.20
2018-04-13T09:41:43.076Z,19.50
2018-04-13T09:44:11.264Z,19.40
2018-04-13T09:46:38.708Z,19.40
2018-04-13T09:49:06.137Z,19.30
2018-04-13T09:51:33.581Z,19.20
2018-04-13T09:54:01.008Z,19.20
2018-04-13T09:56:28.452Z,19.10
2018-04-13T09:58:55.896Z,19.10
2018-04-13T10:01:23.333Z,19.10
2018-04-13T10:03:57.224Z,19.20
2018-04-13T10:06:24.669Z,19.20
2018-04-13T10:08:52.092Z,19.30
2018-04-13T10:11:19.538Z,19.30
2018-04-13T10:13:46.989Z,19.40
2018-04-13T10:16:14.437Z,19.40
2018-04-13T10:18:41.860Z,19.50
2018-04-13T10:21:10.070Z,19.60
2018-04-13T10:23:37.492Z,19.60
2018-04-13T10:26:05.696Z,19.80
2018-04-13T10:28:33.132Z,19.80
2018-04-13T10:31:01.345Z,19.70
2018-04-13T10:33:28.781Z,19.70
2018-04-13T10:35:56.213Z,19.60
2018-04-13T10:38:24.413Z,19.60
2018-04-13T10:40:51.884Z,19.60
2018-04-13T10:43:19.299Z,19.60
2018-04-13T10:45:47.507Z,19.60
2018-04-13T10:48:14.934Z,19.60
2018-04-13T10:50:42.377Z,19.60
2018-04-13T10:53:10.573Z,19.60
2018-04-13T10:55:38.006Z,19.60
2018-04-13T10:58:06.211Z,19.60
2018-04-13T11:00:33.648Z,19.50
2018-04-13T11:03:01.088Z,19.50
2018-04-13T11:05:29.290Z,19.60
2018-04-13T11:07:56.733Z,19.60
2018-04-13T11:10:24.156Z,19.70
2018-04-13T11:12:51.597Z,19.80
2018-04-13T11:15:19.044Z,19.90
2018-04-13T11:17:46.472Z,20.00
2018-04-13T11:20:14.339Z,20.20
2018-04-13T11:22:41.765Z,20.30
2018-04-13T11:25:09.965Z,20.20
2018-04-13T11:27:37.411Z,20.10
2018-04-13T11:30:04.844Z,20.00
2018-04-13T11:32:33.050Z,20.00
2018-04-13T11:35:00.485Z,20.00
2018-04-13T11:37:28.700Z,20.30
2018-04-13T11:39:56.161Z,20.30
2018-04-13T11:42:23.619Z,20.30
2018-04-13T11:44:51.045Z,20.30
2018-04-13T11:47:18.480Z,20.20
2018-04-13T11:49:45.911Z,20.20
2018-04-13T11:52:13.348Z,20.00
2018-04-13T11:54:40.795Z,19.80
2018-04-13T11:57:08.233Z,19.50
2018-04-13T11:59:35.664Z,19.30
2018-04-13T12:02:03.275Z,19.20
2018-04-13T12:04:31.509Z,18.90
2018-04-13T12:06:58.936Z,18.80
2018-04-13T12:09:27.141Z,18.50
2018-04-13T12:11:54.591Z,18.40
2018-04-13T12:14:22.016Z,18.20
2018-04-13T12:16:50.236Z,17.80
2018-04-13T12:19:17.665Z,17.80
2018-04-13T12:21:45.114Z,17.70
2018-04-13T12:24:12.543Z,17.50
2018-04-13T12:26:39.981Z,17.40
2018-04-13T12:29:07.424Z,17.30
2018-04-13T12:31:34.860Z,17.20
2018-04-13T12:34:02.300Z,17.20
2018-04-13T12:36:29.736Z,17.10
2018-04-13T12:38:57.952Z,17.30
2018-04-13T12:41:25.395Z,17.30
2018-04-13T12:43:52.825Z,17.30
2018-04-13T12:46:21.042Z,17.30
2018-04-13T12:48:48.488Z,17.20
2018-04-13T12:51:15.920Z,17.20
2018-04-13T12:53:43.377Z,17.00
2018-04-13T12:56:11.640Z,16.80
2018-04-13T12:58:39.004Z,16.70
2018-04-13T13:01:06.441Z,16.70
2018-04-13T13:03:34.648Z,16.70
2018-04-13T13:06:02.082Z,16.70
2018-04-13T13:08:30.284Z,16.80
2018-04-13T13:10:57.716Z,16.80
2018-04-13T13:13:25.159Z,17.00
2018-04-13T13:15:53.357Z,17.30
2018-04-13T13:18:20.787Z,17.30
2018-04-13T13:20:48.981Z,17.60
2018-04-13T13:23:16.437Z,17.60
2018-04-13T13:25:43.870Z,17.70
2018-04-13T13:28:12.080Z,18.00
2018-04-13T13:30:39.530Z,18.00
2018-04-13T13:33:06.965Z,18.10
2018-04-13T13:35:34.400Z,18.10
2018-04-13T13:38:01.844Z,18.10
2018-04-13T13:40:29.277Z,18.20
2018-04-13T13:42:57.482Z,18.30
2018-04-13T13:45:24.916Z,18.30
2018-04-13T13:47:52.361Z,18.30
2018-04-13T13:50:19.808Z,18.30
2018-04-13T13:52:47.265Z,18.40
2018-04-13T13:55:14.720Z,18.50
2018-04-13T13:57:42.165Z,18.60
2018-04-13T14:00:09.596Z,18.60
2018-04-13T14:02:37.041Z,18.60
2018-04-13T14:05:05.245Z,18.40
2018-04-13T14:07:33.217Z,18.40
2018-04-13T14:10:00.652Z,18.30
2018-04-13T14:12:28.076Z,18.20
2018-04-13T14:14:55.572Z,18.10
2018-04-13T14:17:22.957Z,18.00
2018-04-13T14:19:50.398Z,18.00
2018-04-13T14:22:17.847Z,18.00
2018-04-13T14:24:45.280Z,18.00
2018-04-13T14:27:12.709Z,18.00
2018-04-13T14:29:40.144Z,18.00
2018-04-13T14:32:07.585Z,17.90
2018-04-13T14:34:35.039Z,17.90
2018-04-13T14:37:02.468Z,17.70
2018-04-13T14:39:29.920Z,17.60
2018-04-13T14:41:57.360Z,17.50
2018-04-13T14:44:25.583Z,17.60
2018-04-13T14:46:53.012Z,17.60
2018-04-13T14:49:20.445Z,17.60
2018-04-13T14:51:48.645Z,17.70
2018-04-13T14:54:16.106Z,17.60
2018-04-13T14:56:43.524Z,17.60
2018-04-13T14:59:11.743Z,17.50
2018-04-13T15:01:40.120Z,17.40
2018-04-13T15:04:07.564Z,17.40
2018-04-13T15:06:34.997Z,17.10
2018-04-13T15:09:03.206Z,16.90
2018-04-13T15:11:30.652Z,16.80
2018-04-13T15:13:58.093Z,16.80
2018-04-13T15:16:25.525Z,16.80
2018-04-13T15:18:53.727Z,16.80
2018-04-13T15:21:21.154Z,16.70
2018-04-13T15:23:49.362Z,16.70
2018-04-13T15:26:16.794Z,16.70
2018-04-13T15:28:44.997Z,16.70
2018-04-13T15:31:12.425Z,16.70
2018-04-13T15:33:39.868Z,16.80
2018-04-13T15:36:08.061Z,16.80
2018-04-13T15:38:35.492Z,16.80
2018-04-13T15:41:03.700Z,16.90
2018-04-13T15:43:31.142Z,16.90
2018-04-13T15:45:58.576Z,17.00
2018-04-13T15:50:51.464Z,16.80
2018-04-13T15:53:18.898Z,16.70
2018-04-13T15:55:47.111Z,16.60
2018-04-13T15:58:14.531Z,16.60
2018-04-13T16:00:42.741Z,16.40
2018-04-13T16:03:10.674Z,16.40
2018-04-13T16:05:38.886Z,16.30
2018-04-13T16:08:06.334Z,16.30
2018-04-13T16:10:33.772Z,16.20
2018-04-13T16:13:01.210Z,16.20
2018-04-13T16:15:29.421Z,16.20
2018-04-13T16:17:57.489Z,16.10
2018-04-13T16:20:24.919Z,16.20
2018-04-13T16:22:52.362Z,16.30
2018-04-13T16:25:19.789Z,16.30
2018-04-13T16:27:47.244Z,16.20
2018-04-13T16:30:14.697Z,16.20
2018-04-13T16:32:42.136Z,16.20
2018-04-13T16:35:09.579Z,16.20
2018-04-13T16:37:37.004Z,16.20
2018-04-13T16:40:05.220Z,16.20
2018-04-13T16:42:32.669Z,16.20
2018-04-13T16:45:00.121Z,16.10
2018-04-13T16:47:27.533Z,16.00
2018-04-13T16:49:55.738Z,15.90
2018-04-13T16:52:23.167Z,15.80
2018-04-13T16:54:51.369Z,15.70
2018-04-13T16:57:18.808Z,15.70
2018-04-13T16:59:46.249Z,15.60
2018-04-13T17:02:14.454Z,15.50
2018-04-13T17:04:41.890Z,15.40
2018-04-13T17:07:09.320Z,15.30
2018-04-13T17:09:36.760Z,15.30
2018-04-13T17:12:04.204Z,15.20
2018-04-13T17:14:31.631Z,15.20
2018-04-13T17:16:59.060Z,15.20
2018-04-13T17:19:27.283Z,15.00
2018-04-13T17:21:54.704Z,15.00
2018-04-13T17:24:22.145Z,15.00
2018-04-13T17:26:50.349Z,14.90
2018-04-13T17:29:17.834Z,14.80
2018-04-13T17:31:45.980Z,14.80
2018-04-13T17:34:13.405Z,14.80
2018-04-13T17:36:41.614Z,14.70
2018-04-13T17:39:09.025Z,14.60
2018-04-13T17:41:37.244Z,14.60
2018-04-13T17:44:04.681Z,14.60
2018-04-13T17:46:32.121Z,14.60
2018-04-13T17:48:59.593Z,14.50
2018-04-13T17:51:27.036Z,14.50
2018-04-13T17:53:54.471Z,14.40
2018-04-13T17:56:22.668Z,14.40
2018-04-13T17:58:50.104Z,14.40
2018-04-13T18:01:18.320Z,14.40
2018-04-13T18:03:45.758Z,14.40
2018-04-13T18:06:13.200Z,14.40
2018-04-13T18:08:40.641Z,14.40
2018-04-13T18:11:08.846Z,14.40
2018-04-13T18:13:36.281Z,14.40
2018-04-13T18:16:04.476Z,14.30
2018-04-13T18:18:31.913Z,14.30
2018-04-13T18:20:59.356Z,14.30
2018-04-13T18:23:27.549Z,14.20
2018-04-13T18:25:54.988Z,14.20
2018-04-13T18:28:23.202Z,14.30
2018-04-13T18:30:50.660Z,14.30
2018-04-13T18:33:18.092Z,14.20
2018-04-13T18:35:45.529Z,14.30
2018-04-13T18:38:13.733Z,14.20
2018-04-13T18:40:41.591Z,14.20
2018-04-13T18:43:09.026Z,14.20
2018-04-13T18:45:37.227Z,14.10
2018-04-13T18:48:04.667Z,14.10
2018-04-13T18:50:32.105Z,14.10
2018-04-13T18:53:00.306Z,14.10
2018-04-13T18:55:27.746Z,14.10
2018-04-13T18:57:55.202Z,14.10
2018-04-13T19:00:22.622Z,14.10
2018-04-13T19:02:50.059Z,14.10
2018-04-13T19:05:17.496Z,14.10
2018-04-13T19:07:44.940Z,14.00
2018-04-13T19:10:12.370Z,14.00
2018-04-13T19:12:40.575Z,14.00
2018-04-13T19:15:08.009Z,14.00
2018-04-13T19:17:35.448Z,14.00
2018-04-13T19:20:03.652Z,13.90
2018-04-13T19:22:31.093Z,13.90
2018-04-13T19:24:58.520Z,13.90
2018-04-13T19:27:25.972Z,13.80
2018-04-13T19:29:53.400Z,13.80
2018-04-13T19:32:20.857Z,13.80
2018-04-13T19:34:49.058Z,13.80
2018-04-13T19:37:16.488Z,13.80
2018-04-13T19:39:43.935Z,13.70
2018-04-13T19:42:11.361Z,13.70
2018-04-13T19:44:38.792Z,13.70
2018-04-13T19:47:07.003Z,13.70
2018-04-13T19:49:34.433Z,13.70
2018-04-13T19:52:01.876Z,13.80
2018-04-13T19:54:30.068Z,13.70
2018-04-13T19:56:57.509Z,13.60
2018-04-13T19:59:25.720Z,13.70
2018-04-13T20:01:53.162Z,13.60
2018-04-13T20:04:20.604Z,13.60
2018-04-13T20:06:48.031Z,13.50
2018-04-13T20:09:15.473Z,13.50
2018-04-13T20:11:42.913Z,13.50
2018-04-13T20:14:10.343Z,13.40
2018-04-13T20:16:37.781Z,13.40
2018-04-13T20:19:05.991Z,13.40
2018-04-13T20:21:33.416Z,13.30
2018-04-13T20:24:00.862Z,13.40
2018-04-13T20:26:29.061Z,13.20
2018-04-13T20:28:56.492Z,13.20
2018-04-13T20:31:23.925Z,13.30
2018-04-13T20:33:51.348Z,13.20
2018-04-13T20:36:18.790Z,13.20
2018-04-13T20:38:46.222Z,13.10
2018-04-13T20:41:13.666Z,13.10
2018-04-13T20:43:41.853Z,12.90
2018-04-13T20:46:09.288Z,12.90
2018-04-13T20:48:37.494Z,12.90
2018-04-13T20:51:04.916Z,12.90
2018-04-13T20:53:33.120Z,12.90
2018-04-13T20:56:00.565Z,12.80
2018-04-13T20:58:28.005Z,12.90
2018-04-13T21:00:56.198Z,12.80
2018-04-13T21:03:23.638Z,12.70
2018-04-13T21:05:51.832Z,12.70
2018-04-13T21:08:19.272Z,12.70
2018-04-13T21:10:46.707Z,12.60
2018-04-13T21:13:14.910Z,12.60
2018-04-13T21:15:42.341Z,12.50
2018-04-13T21:18:10.548Z,12.50
2018-04-13T21:20:38.034Z,12.50
2018-04-13T21:23:05.429Z,12.50
2018-04-13T21:25:33.630Z,12.40
2018-04-13T21:28:01.081Z,12.40
2018-04-13T21:30:28.555Z,12.40
2018-04-13T21:32:56.717Z,12.40
2018-04-13T21:35:24.151Z,12.40
2018-04-13T21:37:51.584Z,12.40
2018-04-13T21:40:19.028Z,12.40
2018-04-13T21:42:46.473Z,12.30
2018-04-13T21:45:13.916Z,12.40
2018-04-13T21:47:41.368Z,12.30
2018-04-13T21:50:08.808Z,12.30
2018-04-13T21:52:36.245Z,12.30
2018-04-13T21:55:03.677Z,12.20
2018-04-13T21:57:31.890Z,12.20
2018-04-13T21:59:59.326Z,12.20
2018-04-13T22:02:26.802Z,12.20
2018-04-13T22:04:54.982Z,12.10
2018-04-13T22:07:22.416Z,12.10
2018-04-13T22:09:49.852Z,12.10
2018-04-13T22:12:29.917Z,12.00
2018-04-13T22:14:57.353Z,12.00
2018-04-13T22:17:25.560Z,11.90
2018-04-13T22:19:52.996Z,11.90
2018-04-13T22:22:20.435Z,11.90
2018-04-13T22:24:48.632Z,11.80
2018-04-13T22:27:16.099Z,11.80
2018-04-13T22:29:43.545Z,11.80
2018-04-13T22:32:10.981Z,11.80
2018-04-13T22:34:39.198Z,11.80
2018-04-13T22:37:06.637Z,11.70
2018-04-13T22:39:34.081Z,11.70
2018-04-13T22:42:01.519Z,11.70
2018-04-13T22:44:29.721Z,11.60
2018-04-13T22:46:57.161Z,11.60
2018-04-13T22:49:25.394Z,11.50
2018-04-13T22:51:52.800Z,11.50
2018-04-13T22:54:21.020Z,11.40
2018-04-13T22:56:48.453Z,11.40
2018-04-13T22:59:15.900Z,11.40
2018-04-13T23:01:43.341Z,11.40
2018-04-13T23:04:10.784Z,11.40
2018-04-13T23:06:38.984Z,11.40
2018-04-13T23:09:06.424Z,11.40
2018-04-13T23:11:33.855Z,11.40
2018-04-13T23:14:02.074Z,11.30
2018-04-13T23:16:29.521Z,11.20
2018-04-13T23:18:56.959Z,11.20
2018-04-13T23:21:24.400Z,11.10
2018-04-13T23:23:52.605Z,11.00
2018-04-13T23:26:20.044Z,11.00
2018-04-13T23:28:47.497Z,11.00
2018-04-13T23:31:14.936Z,10.90
2018-04-13T23:33:43.162Z,11.00
2018-04-13T23:36:10.609Z,11.00
2018-04-13T23:38:38.049Z,11.00
2018-04-13T23:41:05.540Z,11.00
2018-04-13T23:43:33.000Z,11.00
2018-04-13T23:46:00.448Z,10.90
2018-04-13T23:48:27.899Z,10.90
2018-04-13T23:50:55.360Z,10.90
2018-04-13T23:53:22.788Z,10.80
2018-04-13T23:55:50.230Z,10.80
2018-04-13T23:58:17.671Z,10.70
